createdAt,value
2018-11-10T00:02:14.785Z,22.83
2018-11-10T00:04:42.981Z,23.00
2018-11-10T00:07:11.178Z,23.83
2018-11-10T00:09:39.333Z,24.30
2018-11-10T00:12:07.514Z,22.63
2018-11-10T00:14:35.682Z,23.60
2018-11-10T00:17:03.866Z,26.80
2018-11-10T00:19:32.051Z,26.00
2018-11-10T00:22:00.225Z,26.27
2018-11-10T00:24:28.389Z,20.97
2018-11-10T00:26:56.571Z,22.47
2018-11-10T00:29:24.751Z,22.73
2018-11-10T00:31:52.934Z,22.17
2018-11-10T00:34:21.157Z,24.13
2018-11-10T00:36:49.330Z,26.93
2018-11-10T00:39:17.501Z,26.57
2018-11-10T00:41:45.649Z,24.27
2018-11-10T00:44:13.826Z,24.93
2018-11-10T00:46:41.999Z,24.20
2018-11-10T00:49:10.190Z,22.67
2018-11-10T00:51:38.361Z,23.57
2018-11-10T00:54:06.560Z,24.53
2018-11-10T00:56:34.731Z,26.00
2018-11-10T00:59:02.937Z,25.63
2018-11-10T01:01:31.114Z,25.00
2018-11-10T01:03:59.286Z,26.00
2018-11-10T01:06:27.461Z,24.60
2018-11-10T01:08:55.633Z,22.00
2018-11-10T01:11:23.792Z,21.70
2018-11-10T01:13:51.981Z,23.47
2018-11-10T01:16:20.173Z,23.30
2018-11-10T01:18:48.337Z,26.10
2018-11-10T01:21:16.522Z,30.90
2018-11-10T01:23:44.726Z,28.20
2018-11-10T01:26:12.890Z,28.53
2018-11-10T01:28:41.085Z,23.03
2018-11-10T01:31:09.267Z,25.17
2018-11-10T01:33:37.510Z,23.30
2018-11-10T01:36:06.350Z,21.63
2018-11-10T01:38:34.546Z,19.97
2018-11-10T01:41:02.701Z,23.33
2018-11-10T01:43:30.867Z,23.13
2018-11-10T01:45:59.022Z,23.70
2018-11-10T01:48:27.193Z,24.50
2018-11-10T01:50:55.365Z,22.93
2018-11-10T01:53:23.546Z,26.53
2018-11-10T01:55:51.719Z,26.30
2018-11-10T01:58:19.923Z,25.33
2018-11-10T02:00:48.086Z,24.13
2018-11-10T02:03:16.266Z,25.10
2018-11-10T02:05:44.430Z,23.23
2018-11-10T02:08:12.605Z,22.40
2018-11-10T02:10:40.782Z,22.83
2018-11-10T02:13:08.953Z,21.50
2018-11-10T02:15:37.125Z,27.57
2018-11-10T02:18:05.472Z,30.57
2018-11-10T02:20:33.637Z,31.43
2018-11-10T02:23:01.813Z,30.90
2018-11-10T02:25:30.384Z,29.50
2018-11-10T02:27:58.553Z,30.90
2018-11-10T02:30:26.721Z,28.97
2018-11-10T02:32:54.927Z,28.00
2018-11-10T02:35:23.101Z,29.70
2018-11-10T02:37:51.296Z,29.30
2018-11-10T02:40:19.466Z,27.20
2018-11-10T02:42:47.644Z,27.80
2018-11-10T02:45:15.898Z,26.70
2018-11-10T02:47:44.912Z,27.60
2018-11-10T02:50:13.107Z,28.23
2018-11-10T02:52:41.384Z,28.20
2018-11-10T02:55:10.141Z,29.03
2018-11-10T02:57:38.346Z,28.10
2018-11-10T03:00:07.788Z,27.50
2018-11-10T03:02:35.958Z,28.23
2018-11-10T03:05:04.183Z,25.70
2018-11-10T03:07:32.360Z,28.10
2018-11-10T03:10:00.524Z,29.97
2018-11-10T03:12:28.701Z,27.20
2018-11-10T03:14:56.888Z,26.27
2018-11-10T03:17:25.118Z,26.77
2018-11-10T03:19:53.279Z,26.57
2018-11-10T03:22:21.581Z,24.93
2018-11-10T03:24:49.755Z,25.63
2018-11-10T03:27:17.921Z,25.00
2018-11-10T03:29:46.133Z,25.83
2018-11-10T03:32:14.309Z,26.00
2018-11-10T03:34:42.481Z,25.57
2018-11-10T03:37:10.648Z,25.20
2018-11-10T03:39:38.838Z,23.43
2018-11-10T03:42:07.008Z,26.40
2018-11-10T03:44:35.205Z,23.93
2018-11-10T03:47:03.381Z,23.43
2018-11-10T03:49:31.591Z,25.87
2018-11-10T03:51:59.746Z,25.50
2018-11-10T03:54:27.934Z,24.03
2018-11-10T03:56:56.117Z,25.53
2018-11-10T03:59:24.288Z,26.20
2018-11-10T04:01:52.439Z,24.57
2018-11-10T04:04:20.600Z,24.87
2018-11-10T04:06:48.777Z,26.00
2018-11-10T04:09:16.955Z,24.77
2018-11-10T04:11:45.121Z,24.47
2018-11-10T04:14:13.297Z,25.03
2018-11-10T04:16:41.481Z,23.93
2018-11-10T04:19:09.654Z,24.30
2018-11-10T04:21:37.842Z,23.50
2018-11-10T04:24:06.049Z,24.67
2018-11-10T04:26:34.225Z,24.53
2018-11-10T04:29:02.442Z,23.50
2018-11-10T04:31:30.602Z,26.37
2018-11-10T04:33:58.786Z,26.27
2018-11-10T04:36:27.086Z,24.63
2018-11-10T04:38:55.253Z,24.27
2018-11-10T04:41:23.545Z,25.00
2018-11-10T04:43:51.726Z,22.53
2018-11-10T04:46:19.884Z,24.83
2018-11-10T04:48:48.077Z,24.80
2018-11-10T04:51:16.261Z,25.60
2018-11-10T04:53:44.433Z,24.37
2018-11-10T04:56:12.581Z,22.73
2018-11-10T04:58:40.762Z,28.10
2018-11-10T05:01:08.930Z,25.23
2018-11-10T05:03:37.117Z,28.07
2018-11-10T05:06:05.354Z,27.10
2018-11-10T05:08:33.545Z,27.23
2018-11-10T05:11:01.712Z,27.77
2018-11-10T05:13:29.896Z,28.40
2018-11-10T05:15:58.069Z,25.70
2018-11-10T05:18:26.245Z,24.13
2018-11-10T05:20:54.416Z,24.17
2018-11-10T05:23:22.605Z,22.60
2018-11-10T05:25:50.777Z,24.47
2018-11-10T05:28:18.937Z,22.00
2018-11-10T05:30:47.194Z,23.10
2018-11-10T05:33:15.377Z,23.73
2018-11-10T05:35:43.550Z,24.00
2018-11-10T05:38:11.741Z,25.23
2018-11-10T05:40:39.917Z,24.17
2018-11-10T05:43:08.090Z,26.10
2018-11-10T05:45:36.261Z,22.33
2018-11-10T05:48:04.421Z,23.97
2018-11-10T05:50:32.593Z,23.77
2018-11-10T05:53:03.591Z,23.80
2018-11-10T05:55:31.815Z,24.10
2018-11-10T05:58:00.101Z,22.50
2018-11-10T06:00:28.459Z,20.90
2018-11-10T06:03:10.036Z,20.53
2018-11-10T06:05:43.874Z,22.50
2018-11-10T06:08:15.078Z,21.63
2018-11-10T06:10:43.374Z,22.90
2018-11-10T06:13:11.541Z,21.93
2018-11-10T06:15:39.726Z,24.27
2018-11-10T06:18:07.903Z,22.20
2018-11-10T06:20:36.132Z,22.83
2018-11-10T06:23:04.791Z,22.93
2018-11-10T06:25:33.672Z,23.87
2018-11-10T06:28:02.681Z,22.23
2018-11-10T06:30:31.969Z,21.93
2018-11-10T06:33:00.871Z,22.23
2018-11-10T06:35:29.614Z,22.30
2018-11-10T06:37:57.977Z,23.93
2018-11-10T06:40:26.484Z,23.97
2018-11-10T06:42:54.924Z,25.80
2018-11-10T06:45:23.343Z,22.20
2018-11-10T06:47:51.606Z,22.77
2018-11-10T06:50:19.965Z,23.00
2018-11-10T06:52:48.555Z,23.80
2018-11-10T06:55:16.928Z,21.13
2018-11-10T06:57:45.434Z,22.03
2018-11-10T07:00:15.022Z,25.03
2018-11-10T07:02:43.397Z,24.20
2018-11-10T07:05:12.339Z,23.17
2018-11-10T07:07:40.965Z,21.97
2018-11-10T07:10:10.004Z,21.53
2018-11-10T07:12:39.695Z,21.57
2018-11-10T07:15:14.655Z,21.03
2018-11-10T07:17:45.920Z,20.03
2018-11-10T07:20:14.667Z,22.87
2018-11-10T07:22:44.494Z,21.67
2018-11-10T07:25:16.889Z,21.10
2018-11-10T07:27:46.846Z,23.30
2018-11-10T07:30:15.807Z,21.10
2018-11-10T07:32:45.547Z,20.80
2018-11-10T07:35:17.001Z,18.83
2018-11-10T07:37:50.123Z,21.00
2018-11-10T07:40:28.437Z,20.80
2018-11-10T07:42:57.259Z,20.00
2018-11-10T07:45:25.560Z,21.37
2018-11-10T07:47:53.969Z,19.43
2018-11-10T07:50:22.435Z,20.70
2018-11-10T07:52:50.670Z,21.43
2018-11-10T07:55:18.957Z,20.80
2018-11-10T07:57:47.149Z,19.70
2018-11-10T08:00:16.705Z,20.10
2018-11-10T08:02:44.890Z,20.07
2018-11-10T08:05:13.566Z,20.03
2018-11-10T08:07:42.550Z,21.60
2018-11-10T08:10:11.350Z,22.30
2018-11-10T08:12:39.529Z,25.80
2018-11-10T08:15:10.043Z,19.50
2018-11-10T08:17:38.405Z,20.03
2018-11-10T08:20:06.753Z,19.03
2018-11-10T08:22:35.898Z,20.63
2018-11-10T08:25:04.561Z,19.30
2018-11-10T08:27:33.043Z,18.53
2018-11-10T08:30:01.820Z,19.27
2018-11-10T08:32:30.373Z,21.13
2018-11-10T08:34:59.226Z,20.20
2018-11-10T08:37:27.856Z,21.70
2018-11-10T08:39:57.426Z,19.67
2018-11-10T08:42:26.144Z,17.57
2018-11-10T08:44:54.734Z,17.67
2018-11-10T08:47:23.158Z,19.90
2018-11-10T08:49:51.740Z,18.73
2018-11-10T08:52:20.171Z,19.90
2018-11-10T08:54:48.584Z,21.47
2018-11-10T08:57:17.446Z,20.10
2018-11-10T08:59:46.202Z,21.67
2018-11-10T09:02:14.438Z,24.63
2018-11-10T09:04:43.093Z,23.07
2018-11-10T09:07:11.642Z,23.40
2018-11-10T09:09:39.928Z,23.70
2018-11-10T09:12:08.939Z,21.10
2018-11-10T09:14:37.190Z,21.30
2018-11-10T09:17:06.764Z,22.63
2018-11-10T09:19:35.053Z,22.27
2018-11-10T09:22:03.242Z,24.70
2018-11-10T09:24:31.480Z,26.63
2018-11-10T09:27:00.299Z,25.03
2018-11-10T09:29:28.253Z,21.00
2018-11-10T09:31:56.445Z,22.33
2018-11-10T09:34:24.632Z,20.07
2018-11-10T09:36:53.758Z,23.13
2018-11-10T09:39:21.999Z,26.60
2018-11-10T09:41:50.605Z,31.20
2018-11-10T09:44:18.772Z,29.37
2018-11-10T09:46:46.993Z,33.97
2018-11-10T09:49:15.347Z,29.90
2018-11-10T09:51:44.148Z,24.67
2018-11-10T09:54:13.606Z,21.00
2018-11-10T09:56:42.178Z,19.57
2018-11-10T09:59:10.823Z,20.00
2018-11-10T10:01:41.045Z,20.43
2018-11-10T10:04:09.475Z,19.47
2018-11-10T10:06:37.962Z,19.03
2018-11-10T10:09:09.160Z,18.13
2018-11-10T10:11:39.385Z,19.03
2018-11-10T10:14:09.464Z,16.90
2018-11-10T10:16:38.744Z,17.87
2018-11-10T10:19:07.817Z,19.03
2018-11-10T10:21:36.501Z,20.97
2018-11-10T10:24:05.133Z,18.93
2018-11-10T10:26:33.610Z,18.37
2018-11-10T10:29:02.020Z,19.80
2018-11-10T10:31:30.469Z,22.27
2018-11-10T10:34:19.181Z,20.30
2018-11-10T10:36:52.613Z,19.43
2018-11-10T10:39:21.103Z,20.60
2018-11-10T10:49:57.135Z,18.13
2018-11-10T10:52:35.876Z,16.27
2018-11-10T10:57:56.426Z,17.70
2018-11-10T11:00:31.293Z,19.87
2018-11-10T11:03:05.500Z,16.03
2018-11-10T11:05:38.998Z,15.40
2018-11-10T11:08:07.202Z,14.20
2018-11-10T11:10:35.377Z,15.40
2018-11-10T11:13:03.565Z,17.57
2018-11-10T11:15:31.988Z,17.17
2018-11-10T11:17:59.994Z,15.37
2018-11-10T11:20:28.185Z,15.50
2018-11-10T11:22:57.587Z,16.20
2018-11-10T11:25:25.945Z,15.60
2018-11-10T11:27:54.131Z,14.83
2018-11-10T11:30:22.333Z,15.33
2018-11-10T11:32:50.569Z,16.17
2018-11-10T11:35:18.832Z,17.03
2018-11-10T11:37:46.939Z,17.57
2018-11-10T11:40:15.280Z,17.87
2018-11-10T11:42:43.921Z,16.67
2018-11-10T11:45:13.005Z,16.53
2018-11-10T11:47:42.012Z,16.70
2018-11-10T11:50:11.765Z,15.83
2018-11-10T11:52:40.402Z,15.30
2018-11-10T11:55:09.185Z,16.40
2018-11-10T11:57:37.448Z,15.60
2018-11-10T12:00:07.353Z,13.53
2018-11-10T12:02:35.536Z,15.80
2018-11-10T12:05:03.882Z,15.67
2018-11-10T12:07:32.051Z,15.27
2018-11-10T12:10:00.221Z,14.93
2018-11-10T12:12:28.409Z,15.87
2018-11-10T12:14:56.618Z,19.30
2018-11-10T12:17:24.797Z,17.30
2018-11-10T12:19:52.793Z,17.10
2018-11-10T12:22:20.954Z,16.40
2018-11-10T12:24:49.138Z,18.93
2018-11-10T12:27:17.313Z,17.00
2018-11-10T12:29:45.486Z,16.67
2018-11-10T12:32:13.663Z,17.57
2018-11-10T12:34:41.845Z,16.67
2018-11-10T12:37:10.029Z,14.97
2018-11-10T12:39:38.213Z,15.10
2018-11-10T12:42:06.513Z,14.20
2018-11-10T12:44:34.685Z,14.33
2018-11-10T12:47:02.899Z,16.13
2018-11-10T12:49:31.081Z,16.53
2018-11-10T12:51:59.275Z,16.60
2018-11-10T12:54:27.453Z,16.60
2018-11-10T12:56:55.644Z,16.10
2018-11-10T12:59:23.817Z,16.97
2018-11-10T13:01:51.990Z,16.87
2018-11-10T13:04:20.164Z,16.27
2018-11-10T13:06:48.380Z,16.67
2018-11-10T13:09:16.551Z,16.13
2018-11-10T13:11:44.836Z,12.77
2018-11-10T13:14:12.930Z,11.30
2018-11-10T13:16:41.169Z,12.57
2018-11-10T13:19:10.369Z,12.93
2018-11-10T13:21:39.255Z,13.00
2018-11-10T13:24:07.638Z,12.70
2018-11-10T13:26:35.798Z,12.90
2018-11-10T13:29:03.962Z,11.23
2018-11-10T13:31:32.251Z,13.53
2018-11-10T13:34:01.637Z,12.10
2018-11-10T13:36:29.961Z,12.00
2018-11-10T13:38:58.135Z,12.17
2018-11-10T13:41:26.342Z,14.03
2018-11-10T13:43:54.552Z,14.70
2018-11-10T13:46:22.698Z,14.57
2018-11-10T13:48:51.194Z,14.30
2018-11-10T13:51:19.497Z,15.47
2018-11-10T13:53:47.547Z,16.60
2018-11-10T13:56:15.722Z,15.10
2018-11-10T13:58:43.914Z,13.37
2018-11-10T14:01:12.069Z,14.43
2018-11-10T14:03:40.257Z,12.30
2018-11-10T14:06:08.433Z,11.80
2018-11-10T14:08:36.630Z,9.57
2018-11-10T14:11:04.802Z,10.37
2018-11-10T14:13:33.001Z,8.93
2018-11-10T14:16:01.174Z,9.60
2018-11-10T14:18:29.378Z,9.00
2018-11-10T14:20:57.550Z,9.27
2018-11-10T14:23:25.724Z,10.17
2018-11-10T14:25:53.904Z,12.57
2018-11-10T14:28:22.101Z,10.53
2018-11-10T14:30:50.269Z,12.80
2018-11-10T14:33:18.453Z,9.90
2018-11-10T14:35:46.625Z,10.33
2018-11-10T14:38:14.805Z,10.70
2018-11-10T14:40:42.981Z,11.60
2018-11-10T14:43:11.165Z,12.00
2018-11-10T14:45:39.345Z,13.43
2018-11-10T14:48:07.513Z,13.03
2018-11-10T14:50:35.709Z,10.60
2018-11-10T14:53:03.998Z,9.20
2018-11-10T14:55:32.058Z,9.23
2018-11-10T14:58:00.234Z,9.30
2018-11-10T15:00:29.333Z,10.00
2018-11-10T15:02:57.517Z,8.93
2018-11-10T15:05:25.791Z,10.63
2018-11-10T15:07:53.857Z,11.17
2018-11-10T15:10:22.013Z,11.30
2018-11-10T15:12:50.185Z,10.80
2018-11-10T15:15:18.994Z,10.20
2018-11-10T15:17:47.427Z,10.83
2018-11-10T15:20:16.761Z,10.37
2018-11-10T15:22:44.940Z,10.70
2018-11-10T15:25:14.551Z,11.53
2018-11-10T15:27:42.617Z,12.40
2018-11-10T15:30:13.109Z,12.63
2018-11-10T15:32:42.035Z,11.80
2018-11-10T15:35:12.249Z,12.83
2018-11-10T15:37:40.951Z,12.80
2018-11-10T15:40:10.354Z,11.43
2018-11-10T15:42:38.661Z,11.20
2018-11-10T15:45:07.593Z,12.53
2018-11-10T15:47:35.785Z,12.13
2018-11-10T15:50:04.109Z,12.83
2018-11-10T15:52:32.293Z,12.27
2018-11-10T15:55:00.490Z,11.70
2018-11-10T15:57:28.672Z,15.67
2018-11-10T15:59:56.889Z,17.33
2018-11-10T16:02:25.090Z,12.23
2018-11-10T16:04:53.313Z,10.70
2018-11-10T16:07:21.494Z,12.30
2018-11-10T16:09:49.668Z,12.90
2018-11-10T16:12:17.870Z,11.77
2018-11-10T16:14:46.039Z,13.73
2018-11-10T16:17:14.214Z,12.50
2018-11-10T16:19:42.381Z,12.50
2018-11-10T16:22:10.558Z,12.80
2018-11-10T16:24:38.780Z,11.70
2018-11-10T16:27:06.977Z,11.60
2018-11-10T16:29:35.262Z,14.37
2018-11-10T16:32:03.417Z,14.17
2018-11-10T16:34:31.633Z,15.17
2018-11-10T16:36:59.803Z,13.67
2018-11-10T16:39:27.966Z,13.30
2018-11-10T16:41:56.121Z,14.07
2018-11-10T16:44:24.397Z,38.00
2018-11-10T16:46:52.557Z,25.97
2018-11-10T16:49:20.716Z,17.03
2018-11-10T16:51:48.885Z,11.23
2018-11-10T16:54:17.062Z,14.10
2018-11-10T16:56:45.341Z,20.20
2018-11-10T16:59:13.657Z,11.40
2018-11-10T17:01:41.729Z,9.87
2018-11-10T17:04:09.931Z,9.90
2018-11-10T17:06:38.108Z,9.90
2018-11-10T17:09:08.697Z,10.40
2018-11-10T17:11:36.873Z,9.90
2018-11-10T17:14:05.639Z,11.93
2018-11-10T17:16:33.837Z,13.60
2018-11-10T17:19:02.038Z,14.27
2018-11-10T17:21:30.252Z,17.13
2018-11-10T17:23:58.447Z,12.40
2018-11-10T17:26:26.625Z,11.93
2018-11-10T17:28:54.825Z,12.50
2018-11-10T17:31:23.023Z,15.43
2018-11-10T17:33:51.450Z,13.30
2018-11-10T17:36:19.944Z,13.67
2018-11-10T17:38:48.203Z,12.83
2018-11-10T17:41:16.533Z,12.20
2018-11-10T17:43:45.169Z,14.20
2018-11-10T17:46:13.397Z,14.83
2018-11-10T17:48:41.633Z,13.50
2018-11-10T17:51:09.829Z,14.63
2018-11-10T17:53:38.056Z,15.77
2018-11-10T17:56:06.316Z,15.10
2018-11-10T17:58:34.618Z,14.87
2018-11-10T18:01:02.769Z,14.87
2018-11-10T18:03:30.962Z,15.73
2018-11-10T18:05:59.149Z,16.27
2018-11-10T18:08:27.368Z,17.37
2018-11-10T18:10:55.619Z,17.27
2018-11-10T18:13:23.814Z,19.87
2018-11-10T18:15:52.238Z,20.27
2018-11-10T18:18:20.469Z,19.23
2018-11-10T18:20:48.732Z,18.00
2018-11-10T18:23:16.945Z,20.17
2018-11-10T18:25:45.138Z,17.27
2018-11-10T18:28:13.309Z,15.80
2018-11-10T18:30:41.613Z,15.93
2018-11-10T18:33:10.048Z,16.03
2018-11-10T18:35:38.273Z,16.27
2018-11-10T18:38:06.536Z,15.70
2018-11-10T18:40:34.738Z,16.57
2018-11-10T18:43:03.022Z,16.87
2018-11-10T18:45:31.310Z,16.73
2018-11-10T18:47:59.550Z,16.37
2018-11-10T18:50:27.825Z,16.00
2018-11-10T18:52:56.248Z,16.37
2018-11-10T18:55:24.497Z,16.63
2018-11-10T18:57:52.748Z,18.20
2018-11-10T19:00:20.916Z,17.00
2018-11-10T19:02:49.097Z,17.40
2018-11-10T19:05:17.751Z,17.23
2018-11-10T19:07:45.937Z,15.90
2018-11-10T19:10:15.643Z,15.50
2018-11-10T19:12:43.916Z,17.23
2018-11-10T19:15:14.548Z,15.50
2018-11-10T19:17:42.749Z,15.33
2018-11-10T19:20:11.821Z,14.87
2018-11-10T19:22:40.162Z,16.20
2018-11-10T19:25:09.709Z,16.20
2018-11-10T19:27:37.937Z,16.83
2018-11-10T19:30:08.532Z,15.63
2018-11-10T19:32:36.809Z,17.60
2018-11-10T19:35:05.064Z,14.70
2018-11-10T19:37:33.317Z,15.17
2018-11-10T19:40:01.709Z,16.03
2018-11-10T19:42:29.978Z,15.17
2018-11-10T19:44:58.350Z,15.80
2018-11-10T19:47:26.544Z,15.80
2018-11-10T19:49:54.791Z,15.47
2018-11-10T19:52:23.005Z,14.97
2018-11-10T19:54:51.224Z,15.33
2018-11-10T19:57:19.578Z,16.40
2018-11-10T19:59:47.773Z,16.30
2018-11-10T20:02:16.749Z,17.50
2018-11-10T20:04:45.066Z,15.80
2018-11-10T20:07:13.451Z,17.00
2018-11-10T20:09:41.688Z,17.43
2018-11-10T20:12:10.048Z,18.93
2018-11-10T20:14:38.279Z,20.43
2018-11-10T20:17:06.804Z,23.33
2018-11-10T20:19:36.746Z,21.00
2018-11-10T20:22:05.183Z,22.53
2018-11-10T20:24:33.493Z,21.40
2018-11-10T20:27:01.786Z,18.10
2018-11-10T20:29:29.981Z,17.53
2018-11-10T20:31:58.177Z,16.17
2018-11-10T20:34:26.456Z,15.97
2018-11-10T20:36:54.731Z,17.23
2018-11-10T20:39:25.111Z,16.93
2018-11-10T20:41:53.881Z,15.03
2018-11-10T20:44:22.629Z,14.63
2018-11-10T20:46:51.002Z,14.80
2018-11-10T20:49:19.590Z,14.83
2018-11-10T20:51:47.856Z,15.00
2018-11-10T20:54:19.672Z,14.33
2018-11-10T20:56:47.930Z,14.10
2018-11-10T20:59:16.215Z,13.83
2018-11-10T21:01:44.668Z,14.60
2018-11-10T21:04:12.905Z,14.27
2018-11-10T21:06:41.077Z,15.53
2018-11-10T21:09:11.242Z,16.17
2018-11-10T21:11:39.443Z,14.53
2018-11-10T21:14:08.358Z,14.27
2018-11-10T21:16:36.648Z,14.17
2018-11-10T21:19:05.320Z,14.17
2018-11-10T21:21:33.644Z,15.73
2018-11-10T21:24:02.185Z,14.00
2018-11-10T21:26:30.614Z,14.20
2018-11-10T21:28:59.163Z,13.90
2018-11-10T21:31:27.735Z,13.67
2018-11-10T21:33:56.537Z,13.80
2018-11-10T21:36:24.812Z,13.60
2018-11-10T21:38:53.152Z,14.00
2018-11-10T21:41:21.352Z,13.67
2018-11-10T21:43:50.190Z,12.87
2018-11-10T21:46:18.655Z,13.20
2018-11-10T21:48:46.930Z,12.70
2018-11-10T21:51:15.375Z,13.80
2018-11-10T21:53:43.579Z,13.17
2018-11-10T21:56:11.985Z,12.00
2018-11-10T21:58:40.239Z,14.10
2018-11-10T22:01:08.717Z,12.90
2018-11-10T22:03:37.354Z,13.17
2018-11-10T22:06:09.862Z,12.90
2018-11-10T22:08:39.194Z,13.67
2018-11-10T22:11:07.689Z,13.40
2018-11-10T22:13:35.930Z,14.60
2018-11-10T22:18:41.227Z,14.30
2018-11-10T22:21:09.475Z,16.23
2018-11-10T22:23:37.746Z,16.30
2018-11-10T22:26:06.194Z,13.87
2018-11-10T22:28:34.393Z,14.37
2018-11-10T22:31:02.584Z,13.47
2018-11-10T22:33:30.822Z,14.63
2018-11-10T22:35:59.050Z,13.40
2018-11-10T22:38:27.366Z,14.53
2018-11-10T22:40:55.640Z,13.13
2018-11-10T22:43:23.891Z,13.03
2018-11-10T22:45:52.090Z,13.27
2018-11-10T22:48:20.290Z,13.37
2018-11-10T22:50:48.493Z,15.40
2018-11-10T22:53:16.691Z,13.47
2018-11-10T22:55:45.429Z,13.63
2018-11-10T22:58:13.623Z,13.20
2018-11-10T23:00:52.780Z,13.83
2018-11-10T23:03:21.249Z,14.23
2018-11-10T23:05:49.426Z,12.87
2018-11-10T23:08:17.648Z,13.67
2018-11-10T23:10:46.041Z,14.30
2018-11-10T23:13:14.534Z,13.27
2018-11-10T23:15:43.027Z,13.80
2018-11-10T23:18:11.511Z,13.30
2018-11-10T23:20:40.641Z,13.77
2018-11-10T23:23:08.956Z,13.00
2018-11-10T23:25:37.461Z,13.70
2018-11-10T23:28:05.825Z,12.07
2018-11-10T23:30:34.205Z,11.93
2018-11-10T23:33:03.159Z,14.00
2018-11-10T23:35:31.531Z,13.47
2018-11-10T23:37:59.746Z,13.50
2018-11-10T23:40:28.044Z,13.73
2018-11-10T23:42:56.443Z,12.67
2018-11-10T23:45:24.809Z,12.23
2018-11-10T23:47:53.925Z,12.27
2018-11-10T23:50:23.574Z,12.10
2018-11-10T23:52:51.937Z,13.40
2018-11-10T23:55:20.654Z,13.23
2018-11-10T23:57:49.534Z,12.80
